sensor_id;sensor_type;location;lat;lon;timestamp;pressure;altitude;pressure_sealevel;temperature;humidity
75646;BME280;64237;52.438;13.240;2023-03-01T00:01:25;102727.59;;;-2.54;79.95
75646;BME280;64237;52.438;13.240;2023-03-01T00:03:51;102722.59;;;-2.48;79.17
75646;BME280;64237;52.438;13.240;2023-03-01T00:06:18;102727.94;;;-2.46;79.10
75646;BME280;64237;52.438;13.240;2023-03-01T00:08:43;102724.34;;;-2.47;79.71
75646;BME280;64237;52.438;13.240;2023-03-01T00:11:20;102714.38;;;-2.46;79.32
75646;BME280;64237;52.438;13.240;2023-03-01T00:13:48;102706.13;;;-2.45;78.93
75646;BME280;64237;52.438;13.240;2023-03-01T00:16:20;102704.19;;;-2.43;78.80
75646;BME280;64237;52.438;13.240;2023-03-01T00:18:46;102689.88;;;-2.57;79.15
75646;BME280;64237;52.438;13.240;2023-03-01T00:21:11;102694.22;;;-2.55;79.60
75646;BME280;64237;52.438;13.240;2023-03-01T00:23:37;102698.97;;;-2.58;79.30
75646;BME280;64237;52.438;13.240;2023-03-01T00:26:08;102691.00;;;-2.60;79.46
75646;BME280;64237;52.438;13.240;2023-03-01T00:28:34;102694.47;;;-2.70;79.95
75646;BME280;64237;52.438;13.240;2023-03-01T00:31:06;102683.84;;;-2.73;80.15
75646;BME280;64237;52.438;13.240;2023-03-01T00:33:32;102685.22;;;-2.81;80.28
75646;BME280;64237;52.438;13.240;2023-03-01T00:35:58;102694.13;;;-2.79;80.45
75646;BME280;64237;52.438;13.240;2023-03-01T00:38:24;102699.22;;;-2.74;80.67
75646;BME280;64237;52.438;13.240;2023-03-01T00:40:49;102689.81;;;-2.68;80.54
75646;BME280;64237;52.438;13.240;2023-03-01T00:43:15;102682.31;;;-2.78;80.06
75646;BME280;64237;52.438;13.240;2023-03-01T00:45:40;102684.16;;;-2.78;80.31
75646;BME280;64237;52.438;13.240;2023-03-01T00:48:05;102680.59;;;-2.79;79.95
75646;BME280;64237;52.438;13.240;2023-03-01T00:50:31;102680.38;;;-2.76;79.89
75646;BME280;64237;52.438;13.240;2023-03-01T00:52:56;102678.41;;;-2.73;79.69
75646;BME280;64237;52.438;13.240;2023-03-01T00:55:22;102681.03;;;-2.72;79.06
75646;BME280;64237;52.438;13.240;2023-03-01T00:57:49;102679.09;;;-2.83;79.72
75646;BME280;64237;52.438;13.240;2023-03-01T01:00:14;102680.16;;;-2.85;80.10
75646;BME280;64237;52.438;13.240;2023-03-01T01:02:40;102678.00;;;-2.93;80.08
75646;BME280;64237;52.438;13.240;2023-03-01T01:05:05;102674.75;;;-2.98;80.03
75646;BME280;64237;52.438;13.240;2023-03-01T01:07:31;102669.78;;;-3.04;80.07
75646;BME280;64237;52.438;13.240;2023-03-01T01:09:56;102673.22;;;-3.02;80.33
75646;BME280;64237;52.438;13.240;2023-03-01T01:12:22;102669.22;;;-3.09;80.61
75646;BME280;64237;52.438;13.240;2023-03-01T01:14:47;102656.88;;;-3.13;80.54
75646;BME280;64237;52.438;13.240;2023-03-01T01:17:12;102671.81;;;-2.95;80.89
75646;BME280;64237;52.438;13.240;2023-03-01T01:19:38;102668.03;;;-3.05;80.62
75646;BME280;64237;52.438;13.240;2023-03-01T01:22:03;102667.38;;;-2.96;80.68
75646;BME280;64237;52.438;13.240;2023-03-01T01:24:29;102651.47;;;-2.88;79.58
75646;BME280;64237;52.438;13.240;2023-03-01T01:26:54;102650.16;;;-2.95;79.82
75646;BME280;64237;52.438;13.240;2023-03-01T01:29:20;102648.34;;;-3.07;80.56
75646;BME280;64237;52.438;13.240;2023-03-01T01:31:45;102654.16;;;-3.13;81.34
75646;BME280;64237;52.438;13.240;2023-03-01T01:34:19;102644.75;;;-3.07;80.34
75646;BME280;64237;52.438;13.240;2023-03-01T01:36:49;102637.50;;;-3.07;80.87
75646;BME280;64237;52.438;13.240;2023-03-01T01:39:15;102633.38;;;-3.13;80.89
75646;BME280;64237;52.438;13.240;2023-03-01T01:41:41;102625.13;;;-3.24;80.78
75646;BME280;64237;52.438;13.240;2023-03-01T01:44:17;102633.59;;;-3.28;81.19
75646;BME280;64237;52.438;13.240;2023-03-01T01:49:31;102610.75;;;-3.50;82.00
75646;BME280;64237;52.438;13.240;2023-03-01T01:52:10;102626.53;;;-3.43;81.97
75646;BME280;64237;52.438;13.240;2023-03-01T01:54:43;102637.13;;;-3.40;82.26
75646;BME280;64237;52.438;13.240;2023-03-01T01:57:16;102619.06;;;-3.53;82.22
75646;BME280;64237;52.438;13.240;2023-03-01T01:59:46;102647.09;;;-3.54;82.21
75646;BME280;64237;52.438;13.240;2023-03-01T02:02:15;102652.50;;;-3.54;82.78
75646;BME280;64237;52.438;13.240;2023-03-01T02:04:41;102638.97;;;-3.54;82.49
75646;BME280;64237;52.438;13.240;2023-03-01T02:09:36;102643.72;;;-3.45;82.40
75646;BME280;64237;52.438;13.240;2023-03-01T02:12:02;102653.38;;;-3.40;82.79
75646;BME280;64237;52.438;13.240;2023-03-01T02:14:29;102655.03;;;-3.25;81.45
75646;BME280;64237;52.438;13.240;2023-03-01T02:16:54;102640.50;;;-3.24;81.33
75646;BME280;64237;52.438;13.240;2023-03-01T02:19:43;102634.69;;;-3.18;81.27
75646;BME280;64237;52.438;13.240;2023-03-01T02:22:22;102635.84;;;-3.22;81.10
75646;BME280;64237;52.438;13.240;2023-03-01T02:30:10;102633.34;;;-3.51;81.90
75646;BME280;64237;52.438;13.240;2023-03-01T02:32:39;102638.97;;;-3.54;81.87
75646;BME280;64237;52.438;13.240;2023-03-01T02:35:09;102634.66;;;-3.43;81.52
75646;BME280;64237;52.438;13.240;2023-03-01T02:37:36;102635.50;;;-3.43;81.69
75646;BME280;64237;52.438;13.240;2023-03-01T02:40:06;102627.41;;;-3.43;81.75
75646;BME280;64237;52.438;13.240;2023-03-01T02:43:00;102644.44;;;-3.28;80.90
75646;BME280;64237;52.438;13.240;2023-03-01T02:45:26;102633.25;;;-3.36;81.07
75646;BME280;64237;52.438;13.240;2023-03-01T02:47:56;102642.84;;;-3.45;81.61
75646;BME280;64237;52.438;13.240;2023-03-01T02:53:00;102637.69;;;-3.35;81.49
75646;BME280;64237;52.438;13.240;2023-03-01T02:55:27;102649.50;;;-3.36;81.53
75646;BME280;64237;52.438;13.240;2023-03-01T02:57:53;102643.41;;;-3.40;81.20
75646;BME280;64237;52.438;13.240;2023-03-01T03:00:26;102642.22;;;-3.49;81.54
75646;BME280;64237;52.438;13.240;2023-03-01T03:02:54;102633.09;;;-3.60;82.05
75646;BME280;64237;52.438;13.240;2023-03-01T03:05:27;102632.66;;;-3.67;82.97
75646;BME280;64237;52.438;13.240;2023-03-01T03:07:53;102623.13;;;-3.72;82.47
75646;BME280;64237;52.438;13.240;2023-03-01T03:10:25;102622.13;;;-3.84;83.05
75646;BME280;64237;52.438;13.240;2023-03-01T03:12:57;102622.13;;;-3.84;83.15
75646;BME280;64237;52.438;13.240;2023-03-01T03:15:23;102616.91;;;-3.87;83.11
75646;BME280;64237;52.438;13.240;2023-03-01T03:17:51;102627.81;;;-3.89;83.29
75646;BME280;64237;52.438;13.240;2023-03-01T03:20:19;102634.81;;;-3.72;82.66
75646;BME280;64237;52.438;13.240;2023-03-01T03:22:48;102614.47;;;-3.77;82.59
75646;BME280;64237;52.438;13.240;2023-03-01T03:25:16;102618.56;;;-3.85;82.79
75646;BME280;64237;52.438;13.240;2023-03-01T03:27:42;102624.97;;;-3.73;82.63
75646;BME280;64237;52.438;13.240;2023-03-01T03:30:10;102621.84;;;-3.67;82.59
75646;BME280;64237;52.438;13.240;2023-03-01T03:32:40;102623.34;;;-3.63;81.75
75646;BME280;64237;52.438;13.240;2023-03-01T03:35:08;102623.47;;;-3.64;82.12
75646;BME280;64237;52.438;13.240;2023-03-01T03:37:41;102612.22;;;-3.71;82.43
75646;BME280;64237;52.438;13.240;2023-03-01T03:40:26;102600.94;;;-3.77;82.70
75646;BME280;64237;52.438;13.240;2023-03-01T03:42:52;102599.31;;;-3.80;82.52
75646;BME280;64237;52.438;13.240;2023-03-01T03:45:18;102604.94;;;-3.83;82.66
75646;BME280;64237;52.438;13.240;2023-03-01T03:47:44;102606.09;;;-3.87;82.78
75646;BME280;64237;52.438;13.240;2023-03-01T03:50:11;102601.47;;;-3.85;82.74
75646;BME280;64237;52.438;13.240;2023-03-01T03:52:37;102592.19;;;-3.81;82.56
75646;BME280;64237;52.438;13.240;2023-03-01T03:55:03;102586.78;;;-3.81;82.46
75646;BME280;64237;52.438;13.240;2023-03-01T03:57:28;102594.00;;;-3.82;82.28
75646;BME280;64237;52.438;13.240;2023-03-01T03:59:53;102593.03;;;-3.93;82.83
75646;BME280;64237;52.438;13.240;2023-03-01T04:02:19;102586.28;;;-4.00;83.05
75646;BME280;64237;52.438;13.240;2023-03-01T04:04:48;102576.34;;;-4.00;83.54
75646;BME280;64237;52.438;13.240;2023-03-01T04:07:15;102581.00;;;-4.02;83.30
75646;BME280;64237;52.438;13.240;2023-03-01T04:09:40;102575.00;;;-4.20;83.85
75646;BME280;64237;52.438;13.240;2023-03-01T04:12:09;102586.81;;;-4.08;84.04
75646;BME280;64237;52.438;13.240;2023-03-01T04:14:34;102571.13;;;-4.16;84.16
75646;BME280;64237;52.438;13.240;2023-03-01T04:17:00;102571.66;;;-4.10;84.01
75646;BME280;64237;52.438;13.240;2023-03-01T04:19:26;102587.88;;;-4.10;83.29
75646;BME280;64237;52.438;13.240;2023-03-01T04:21:52;102590.56;;;-4.10;82.93
75646;BME280;64237;52.438;13.240;2023-03-01T04:24:17;102589.06;;;-4.15;82.62
75646;BME280;64237;52.438;13.240;2023-03-01T04:26:43;102587.53;;;-4.19;83.62
75646;BME280;64237;52.438;13.240;2023-03-01T04:29:08;102588.59;;;-4.21;83.46
75646;BME280;64237;52.438;13.240;2023-03-01T04:31:33;102586.19;;;-4.26;83.75
75646;BME280;64237;52.438;13.240;2023-03-01T04:33:59;102577.31;;;-4.28;83.57
75646;BME280;64237;52.438;13.240;2023-03-01T04:36:27;102578.06;;;-4.11;83.60
75646;BME280;64237;52.438;13.240;2023-03-01T04:38:53;102576.72;;;-3.92;83.01
75646;BME280;64237;52.438;13.240;2023-03-01T04:41:21;102581.00;;;-3.89;82.75
75646;BME280;64237;52.438;13.240;2023-03-01T04:43:46;102572.47;;;-3.96;82.39
75646;BME280;64237;52.438;13.240;2023-03-01T04:46:15;102572.22;;;-4.05;82.44
75646;BME280;64237;52.438;13.240;2023-03-01T04:48:41;102579.75;;;-4.10;82.41
75646;BME280;64237;52.438;13.240;2023-03-01T04:51:07;102576.09;;;-4.09;82.75
75646;BME280;64237;52.438;13.240;2023-03-01T04:53:34;102580.69;;;-3.97;82.22
75646;BME280;64237;52.438;13.240;2023-03-01T04:56:01;102565.09;;;-4.06;82.30
75646;BME280;64237;52.438;13.240;2023-03-01T04:58:27;102577.06;;;-4.10;82.53
75646;BME280;64237;52.438;13.240;2023-03-01T05:00:53;102573.81;;;-4.16;82.83
75646;BME280;64237;52.438;13.240;2023-03-01T05:03:19;102577.94;;;-4.10;82.61
75646;BME280;64237;52.438;13.240;2023-03-01T05:05:47;102580.47;;;-3.94;82.04
75646;BME280;64237;52.438;13.240;2023-03-01T05:08:13;102571.03;;;-4.01;81.94
75646;BME280;64237;52.438;13.240;2023-03-01T05:10:48;102578.78;;;-4.09;82.78
75646;BME280;64237;52.438;13.240;2023-03-01T05:13:14;102575.41;;;-4.26;82.65
75646;BME280;64237;52.438;13.240;2023-03-01T05:15:55;102577.38;;;-4.42;83.59
75646;BME280;64237;52.438;13.240;2023-03-01T05:18:22;102580.03;;;-4.28;83.08
75646;BME280;64237;52.438;13.240;2023-03-01T05:20:51;102576.72;;;-4.19;82.91
75646;BME280;64237;52.438;13.240;2023-03-01T05:23:17;102567.13;;;-4.10;82.52
75646;BME280;64237;52.438;13.240;2023-03-01T05:25:44;102573.75;;;-4.01;81.95
75646;BME280;64237;52.438;13.240;2023-03-01T05:28:12;102575.06;;;-3.94;82.11
75646;BME280;64237;52.438;13.240;2023-03-01T05:30:38;102575.28;;;-3.97;81.68
75646;BME280;64237;52.438;13.240;2023-03-01T05:33:04;102559.66;;;-4.19;82.04
75646;BME280;64237;52.438;13.240;2023-03-01T05:35:32;102561.31;;;-4.31;82.25
75646;BME280;64237;52.438;13.240;2023-03-01T05:37:58;102567.09;;;-4.50;83.16
75646;BME280;64237;52.438;13.240;2023-03-01T05:40:23;102578.16;;;-4.40;82.83
75646;BME280;64237;52.438;13.240;2023-03-01T05:42:54;102568.56;;;-4.58;83.84
75646;BME280;64237;52.438;13.240;2023-03-01T05:45:21;102560.63;;;-4.47;83.80
75646;BME280;64237;52.438;13.240;2023-03-01T05:47:48;102565.41;;;-4.38;83.37
75646;BME280;64237;52.438;13.240;2023-03-01T05:50:19;102553.47;;;-4.48;83.13
75646;BME280;64237;52.438;13.240;2023-03-01T05:52:47;102565.81;;;-4.44;83.00
75646;BME280;64237;52.438;13.240;2023-03-01T05:55:14;102571.03;;;-4.41;83.36
75646;BME280;64237;52.438;13.240;2023-03-01T05:57:40;102566.00;;;-4.47;83.74
75646;BME280;64237;52.438;13.240;2023-03-01T06:00:06;102564.28;;;-4.48;83.14
75646;BME280;64237;52.438;13.240;2023-03-01T06:02:32;102564.59;;;-4.26;83.00
75646;BME280;64237;52.438;13.240;2023-03-01T06:04:57;102568.06;;;-4.24;82.36
75646;BME280;64237;52.438;13.240;2023-03-01T06:07:23;102563.41;;;-4.22;82.18
75646;BME280;64237;52.438;13.240;2023-03-01T06:09:48;102574.31;;;-4.23;82.66
75646;BME280;64237;52.438;13.240;2023-03-01T06:12:13;102568.97;;;-4.10;81.88
75646;BME280;64237;52.438;13.240;2023-03-01T06:14:39;102566.25;;;-4.10;82.02
75646;BME280;64237;52.438;13.240;2023-03-01T06:17:04;102564.38;;;-4.23;82.36
75646;BME280;64237;52.438;13.240;2023-03-01T06:19:29;102556.78;;;-4.30;82.42
75646;BME280;64237;52.438;13.240;2023-03-01T06:21:55;102554.63;;;-4.38;82.99
75646;BME280;64237;52.438;13.240;2023-03-01T06:24:20;102571.94;;;-4.28;83.63
75646;BME280;64237;52.438;13.240;2023-03-01T06:26:45;102562.47;;;-4.08;83.20
75646;BME280;64237;52.438;13.240;2023-03-01T06:29:11;102559.75;;;-3.81;81.37
75646;BME280;64237;52.438;13.240;2023-03-01T06:31:36;102564.94;;;-3.78;81.41
75646;BME280;64237;52.438;13.240;2023-03-01T06:34:02;102564.44;;;-3.70;81.69
75646;BME280;64237;52.438;13.240;2023-03-01T06:36:27;102569.72;;;-3.56;81.76
75646;BME280;64237;52.438;13.240;2023-03-01T06:38:52;102566.38;;;-3.60;81.26
75646;BME280;64237;52.438;13.240;2023-03-01T06:41:18;102554.03;;;-3.64;81.64
75646;BME280;64237;52.438;13.240;2023-03-01T06:43:43;102564.09;;;-3.66;81.65
75646;BME280;64237;52.438;13.240;2023-03-01T06:46:09;102569.28;;;-3.63;81.85
75646;BME280;64237;52.438;13.240;2023-03-01T06:48:34;102572.75;;;-3.61;81.84
75646;BME280;64237;52.438;13.240;2023-03-01T06:51:00;102564.09;;;-3.66;81.89
75646;BME280;64237;52.438;13.240;2023-03-01T06:53:29;102572.94;;;-3.64;82.74
75646;BME280;64237;52.438;13.240;2023-03-01T06:55:55;102564.78;;;-3.50;82.93
75646;BME280;64237;52.438;13.240;2023-03-01T06:58:21;102566.63;;;-3.25;82.00
75646;BME280;64237;52.438;13.240;2023-03-01T07:00:46;102573.63;;;-3.09;81.89
75646;BME280;64237;52.438;13.240;2023-03-01T07:03:12;102573.59;;;-2.97;81.67
75646;BME280;64237;52.438;13.240;2023-03-01T07:05:37;102573.38;;;-2.94;81.59
75646;BME280;64237;52.438;13.240;2023-03-01T07:08:02;102566.78;;;-2.90;81.40
75646;BME280;64237;52.438;13.240;2023-03-01T07:10:28;102575.56;;;-2.86;81.65
75646;BME280;64237;52.438;13.240;2023-03-01T07:12:57;102586.06;;;-2.82;82.22
75646;BME280;64237;52.438;13.240;2023-03-01T07:15:24;102586.56;;;-2.77;82.34
75646;BME280;64237;52.438;13.240;2023-03-01T07:17:49;102581.56;;;-2.70;82.12
75646;BME280;64237;52.438;13.240;2023-03-01T07:20:16;102587.19;;;-2.60;81.72
75646;BME280;64237;52.438;13.240;2023-03-01T07:22:42;102586.94;;;-2.57;82.79
75646;BME280;64237;52.438;13.240;2023-03-01T07:25:09;102583.69;;;-2.50;82.00
75646;BME280;64237;52.438;13.240;2023-03-01T07:27:34;102581.44;;;2.38;90.72
75646;BME280;64237;52.438;13.240;2023-03-01T07:30:00;102587.72;;;1.00;71.56
75646;BME280;64237;52.438;13.240;2023-03-01T07:32:28;102581.75;;;-0.20;73.24
75646;BME280;64237;52.438;13.240;2023-03-01T07:34:54;102590.25;;;-0.79;76.15
75646;BME280;64237;52.438;13.240;2023-03-01T07:37:22;102586.06;;;-1.16;77.61
75646;BME280;64237;52.438;13.240;2023-03-01T07:39:50;102593.78;;;-1.45;78.22
75646;BME280;64237;52.438;13.240;2023-03-01T07:42:16;102582.78;;;-1.55;79.36
75646;BME280;64237;52.438;13.240;2023-03-01T07:44:44;102580.06;;;-1.55;80.36
75646;BME280;64237;52.438;13.240;2023-03-01T07:47:09;102581.41;;;-1.49;80.47
75646;BME280;64237;52.438;13.240;2023-03-01T07:49:35;102580.84;;;-1.42;80.16
75646;BME280;64237;52.438;13.240;2023-03-01T07:52:00;102584.94;;;-1.25;80.10
75646;BME280;64237;52.438;13.240;2023-03-01T07:54:26;102589.53;;;-1.14;80.35
75646;BME280;64237;52.438;13.240;2023-03-01T07:56:51;102577.16;;;-1.07;80.22
75646;BME280;64237;52.438;13.240;2023-03-01T07:59:16;102578.66;;;-1.03;80.83
75646;BME280;64237;52.438;13.240;2023-03-01T08:01:42;102576.47;;;-0.87;80.48
75646;BME280;64237;52.438;13.240;2023-03-01T08:04:10;102571.38;;;-0.69;79.85
75646;BME280;64237;52.438;13.240;2023-03-01T08:06:36;102582.72;;;-0.64;80.09
75646;BME280;64237;52.438;13.240;2023-03-01T08:09:02;102579.38;;;-0.45;76.32
75646;BME280;64237;52.438;13.240;2023-03-01T08:11:27;102574.41;;;-0.29;77.41
75646;BME280;64237;52.438;13.240;2023-03-01T08:13:56;102574.84;;;-0.13;77.24
75646;BME280;64237;52.438;13.240;2023-03-01T08:16:22;102580.44;;;0.07;75.48
75646;BME280;64237;52.438;13.240;2023-03-01T08:18:51;102567.47;;;0.31;75.13
75646;BME280;64237;52.438;13.240;2023-03-01T08:21:17;102565.88;;;0.49;73.54
75646;BME280;64237;52.438;13.240;2023-03-01T08:23:43;102573.00;;;0.61;72.26
75646;BME280;64237;52.438;13.240;2023-03-01T08:26:13;102566.69;;;0.82;71.75
75646;BME280;64237;52.438;13.240;2023-03-01T08:28:39;102566.25;;;1.07;70.26
75646;BME280;64237;52.438;13.240;2023-03-01T08:33:42;102547.13;;;1.37;67.37
75646;BME280;64237;52.438;13.240;2023-03-01T08:36:10;102566.41;;;1.55;66.52
75646;BME280;64237;52.438;13.240;2023-03-01T08:38:54;102558.13;;;1.76;63.07
75646;BME280;64237;52.438;13.240;2023-03-01T08:41:19;102553.53;;;1.96;62.10
75646;BME280;64237;52.438;13.240;2023-03-01T08:43:45;102548.13;;;2.15;62.11
75646;BME280;64237;52.438;13.240;2023-03-01T08:46:11;102555.00;;;2.29;58.61
75646;BME280;64237;52.438;13.240;2023-03-01T08:48:36;102546.63;;;2.40;60.70
75646;BME280;64237;52.438;13.240;2023-03-01T08:51:14;102548.94;;;2.54;60.50
75646;BME280;64237;52.438;13.240;2023-03-01T08:53:45;102546.31;;;2.72;60.41
75646;BME280;64237;52.438;13.240;2023-03-01T08:56:15;102539.69;;;2.74;58.55
75646;BME280;64237;52.438;13.240;2023-03-01T08:58:43;102547.69;;;2.86;60.42
75646;BME280;64237;52.438;13.240;2023-03-01T09:01:11;102542.22;;;2.95;57.69
75646;BME280;64237;52.438;13.240;2023-03-01T09:03:36;102555.38;;;3.19;58.30
75646;BME280;64237;52.438;13.240;2023-03-01T09:06:04;102549.97;;;3.27;57.95
75646;BME280;64237;52.438;13.240;2023-03-01T09:08:33;102552.13;;;3.33;55.13
75646;BME280;64237;52.438;13.240;2023-03-01T09:11:01;102546.63;;;3.43;56.59
75646;BME280;64237;52.438;13.240;2023-03-01T09:13:29;102542.59;;;3.37;56.02
75646;BME280;64237;52.438;13.240;2023-03-01T09:15:58;102542.19;;;3.60;54.88
75646;BME280;64237;52.438;13.240;2023-03-01T09:18:24;102527.25;;;3.54;56.80
75646;BME280;64237;52.438;13.240;2023-03-01T09:20:49;102526.75;;;3.41;58.32
75646;BME280;64237;52.438;13.240;2023-03-01T09:23:21;102525.78;;;3.60;55.01
75646;BME280;64237;52.438;13.240;2023-03-01T09:25:46;102534.00;;;3.77;55.47
75646;BME280;64237;52.438;13.240;2023-03-01T09:28:11;102539.88;;;4.00;55.87
75646;BME280;64237;52.438;13.240;2023-03-01T09:30:40;102521.97;;;4.06;55.39
75646;BME280;64237;52.438;13.240;2023-03-01T09:33:05;102519.63;;;4.29;56.49
75646;BME280;64237;52.438;13.240;2023-03-01T09:35:33;102528.59;;;4.39;54.80
75646;BME280;64237;52.438;13.240;2023-03-01T09:37:59;102530.53;;;4.46;53.51
75646;BME280;64237;52.438;13.240;2023-03-01T09:40:26;102517.78;;;4.37;51.16
75646;BME280;64237;52.438;13.240;2023-03-01T09:45:59;102521.34;;;4.73;50.74
75646;BME280;64237;52.438;13.240;2023-03-01T09:48:25;102514.22;;;4.89;50.93
75646;BME280;64237;52.438;13.240;2023-03-01T09:50:51;102517.03;;;4.97;50.62
75646;BME280;64237;52.438;13.240;2023-03-01T09:53:23;102514.13;;;5.06;50.45
75646;BME280;64237;52.438;13.240;2023-03-01T09:56:00;102517.91;;;5.05;51.66
75646;BME280;64237;52.438;13.240;2023-03-01T10:01:33;102516.78;;;5.24;47.46
75646;BME280;64237;52.438;13.240;2023-03-01T10:06:55;102516.84;;;5.32;48.37
75646;BME280;64237;52.438;13.240;2023-03-01T10:09:30;102523.41;;;5.39;48.22
75646;BME280;64237;52.438;13.240;2023-03-01T10:11:58;102516.94;;;5.65;48.81
75646;BME280;64237;52.438;13.240;2023-03-01T10:17:02;102523.19;;;5.83;46.23
75646;BME280;64237;52.438;13.240;2023-03-01T10:22:19;102517.72;;;5.91;45.98
75646;BME280;64237;52.438;13.240;2023-03-01T10:24:48;102519.84;;;6.22;45.69
75646;BME280;64237;52.438;13.240;2023-03-01T10:27:22;102519.31;;;6.18;44.09
75646;BME280;64237;52.438;13.240;2023-03-01T10:30:16;102511.59;;;6.46;43.70
75646;BME280;64237;52.438;13.240;2023-03-01T10:32:43;102515.00;;;6.64;43.77
75646;BME280;64237;52.438;13.240;2023-03-01T10:35:26;102509.16;;;6.67;42.85
75646;BME280;64237;52.438;13.240;2023-03-01T10:40:23;102506.72;;;6.88;44.23
75646;BME280;64237;52.438;13.240;2023-03-01T10:42:49;102502.19;;;7.12;44.03
75646;BME280;64237;52.438;13.240;2023-03-01T10:48:23;102492.22;;;7.03;42.86
75646;BME280;64237;52.438;13.240;2023-03-01T10:51:12;102492.97;;;7.36;43.12
75646;BME280;64237;52.438;13.240;2023-03-01T10:53:49;102493.09;;;7.42;40.86
75646;BME280;64237;52.438;13.240;2023-03-01T10:56:16;102497.47;;;7.29;42.10
75646;BME280;64237;52.438;13.240;2023-03-01T10:59:01;102479.28;;;7.50;40.67
75646;BME280;64237;52.438;13.240;2023-03-01T11:01:32;102487.34;;;7.83;42.02
75646;BME280;64237;52.438;13.240;2023-03-01T11:06:33;102487.72;;;8.03;39.90
75646;BME280;64237;52.438;13.240;2023-03-01T11:09:18;102478.84;;;8.15;40.16
75646;BME280;64237;52.438;13.240;2023-03-01T11:11:45;102475.28;;;7.84;40.15
75646;BME280;64237;52.438;13.240;2023-03-01T11:14:28;102463.53;;;8.13;40.67
75646;BME280;64237;52.438;13.240;2023-03-01T11:17:23;102475.16;;;8.46;40.17
75646;BME280;64237;52.438;13.240;2023-03-01T11:22:53;102463.41;;;8.81;37.28
75646;BME280;64237;52.438;13.240;2023-03-01T11:25:23;102457.34;;;9.01;37.78
75646;BME280;64237;52.438;13.240;2023-03-01T11:27:49;102457.03;;;9.10;35.50
75646;BME280;64237;52.438;13.240;2023-03-01T11:36:15;102442.00;;;8.69;35.33
75646;BME280;64237;52.438;13.240;2023-03-01T11:38:42;102442.69;;;8.85;35.84
75646;BME280;64237;52.438;13.240;2023-03-01T11:41:14;102440.13;;;9.49;34.07
75646;BME280;64237;52.438;13.240;2023-03-01T11:54:41;102436.09;;;10.30;33.23
75646;BME280;64237;52.438;13.240;2023-03-01T12:00:33;102447.44;;;11.05;33.30
75646;BME280;64237;52.438;13.240;2023-03-01T12:03:44;102446.53;;;10.56;30.19
75646;BME280;64237;52.438;13.240;2023-03-01T12:06:15;102447.41;;;10.36;28.84
75646;BME280;64237;52.438;13.240;2023-03-01T12:14:55;102427.56;;;11.90;28.21
75646;BME280;64237;52.438;13.240;2023-03-01T12:20:30;102419.22;;;11.29;28.82
75646;BME280;64237;52.438;13.240;2023-03-01T12:28:58;102405.47;;;11.55;28.30
75646;BME280;64237;52.438;13.240;2023-03-01T12:34:25;102409.03;;;12.50;27.88
75646;BME280;64237;52.438;13.240;2023-03-01T12:50:40;102377.31;;;11.45;27.85
75646;BME280;64237;52.438;13.240;2023-03-01T12:53:17;102374.25;;;11.27;28.70
75646;BME280;64237;52.438;13.240;2023-03-01T12:55:45;102364.44;;;11.18;28.61
75646;BME280;64237;52.438;13.240;2023-03-01T12:58:32;102374.94;;;10.81;28.65
75646;BME280;64237;52.438;13.240;2023-03-01T13:06:38;102363.44;;;9.51;32.00
75646;BME280;64237;52.438;13.240;2023-03-01T13:17:56;102364.59;;;8.18;31.64
75646;BME280;64237;52.438;13.240;2023-03-01T13:20:32;102358.03;;;8.19;32.50
75646;BME280;64237;52.438;13.240;2023-03-01T13:31:06;102351.91;;;7.94;34.15
75646;BME280;64237;52.438;13.240;2023-03-01T13:36:00;102338.69;;;8.04;34.07
75646;BME280;64237;52.438;13.240;2023-03-01T13:41:17;102328.28;;;8.14;33.67
75646;BME280;64237;52.438;13.240;2023-03-01T13:44:12;102334.22;;;8.03;34.83
75646;BME280;64237;52.438;13.240;2023-03-01T13:46:43;102334.63;;;8.00;35.24
75646;BME280;64237;52.438;13.240;2023-03-01T13:49:14;102329.19;;;7.92;34.30
75646;BME280;64237;52.438;13.240;2023-03-01T13:51:40;102328.91;;;8.02;34.59
75646;BME280;64237;52.438;13.240;2023-03-01T13:54:11;102324.41;;;7.86;35.43
75646;BME280;64237;52.438;13.240;2023-03-01T13:56:40;102323.72;;;7.69;35.24
75646;BME280;64237;52.438;13.240;2023-03-01T13:59:17;102327.63;;;7.75;33.79
75646;BME280;64237;52.438;13.240;2023-03-01T14:01:43;102320.28;;;7.67;37.20
75646;BME280;64237;52.438;13.240;2023-03-01T14:04:25;102313.78;;;7.60;35.40
75646;BME280;64237;52.438;13.240;2023-03-01T14:06:52;102310.47;;;7.50;34.70
75646;BME280;64237;52.438;13.240;2023-03-01T14:09:35;102302.94;;;7.44;34.44
75646;BME280;64237;52.438;13.240;2023-03-01T14:15:32;102297.28;;;7.37;35.37
75646;BME280;64237;52.438;13.240;2023-03-01T14:18:29;102304.09;;;7.27;36.80
75646;BME280;64237;52.438;13.240;2023-03-01T14:21:07;102290.56;;;7.17;36.19
75646;BME280;64237;52.438;13.240;2023-03-01T14:23:32;102288.66;;;7.17;35.10
75646;BME280;64237;52.438;13.240;2023-03-01T14:26:00;102288.06;;;7.30;35.96
75646;BME280;64237;52.438;13.240;2023-03-01T14:28:28;102284.28;;;7.31;36.64
75646;BME280;64237;52.438;13.240;2023-03-01T14:30:58;102286.69;;;7.34;35.71
75646;BME280;64237;52.438;13.240;2023-03-01T14:33:29;102269.69;;;7.45;34.46
75646;BME280;64237;52.438;13.240;2023-03-01T14:35:59;102273.13;;;7.47;35.85
75646;BME280;64237;52.438;13.240;2023-03-01T14:38:36;102270.25;;;7.41;35.72
75646;BME280;64237;52.438;13.240;2023-03-01T14:41:16;102267.69;;;7.39;35.34
75646;BME280;64237;52.438;13.240;2023-03-01T14:44:11;102262.06;;;7.55;34.79
75646;BME280;64237;52.438;13.240;2023-03-01T14:46:39;102265.81;;;7.77;38.18
75646;BME280;64237;52.438;13.240;2023-03-01T14:49:29;102269.00;;;7.66;34.04
75646;BME280;64237;52.438;13.240;2023-03-01T14:52:05;102259.66;;;7.52;33.25
75646;BME280;64237;52.438;13.240;2023-03-01T14:54:41;102259.66;;;7.52;34.08
75646;BME280;64237;52.438;13.240;2023-03-01T14:57:34;102259.38;;;7.47;34.11